createdAt,value
2023-02-08T02:26:25.838Z,96742.00
2023-02-08T02:27:25.849Z,96746.00
2023-02-08T02:28:25.822Z,96742.00
2023-02-08T02:29:25.812Z,96742.00
2023-02-08T02:30:25.869Z,96741.00
2023-02-08T02:31:25.865Z,96742.00
2023-02-08T02:32:25.822Z,96741.00
2023-02-08T02:33:25.776Z,96741.00
2023-02-08T02:34:25.789Z,96737.00
2023-02-08T02:35:25.809Z,96737.00
2023-02-08T02:36:25.769Z,96739.00
2023-02-08T02:37:25.789Z,96737.00
2023-02-08T02:38:25.748Z,96737.00
2023-02-08T02:39:25.748Z,96737.00
2023-02-08T02:40:25.772Z,96735.00
2023-02-08T02:41:25.733Z,96735.00
2023-02-08T02:42:25.747Z,96735.00
2023-02-08T02:43:25.755Z,96733.00
2023-02-08T02:44:25.722Z,96733.00
2023-02-08T02:45:25.725Z,96737.00
2023-02-08T02:46:25.718Z,96735.00
2023-02-08T02:47:25.719Z,96735.00
2023-02-08T02:48:25.689Z,96735.00
2023-02-08T02:49:25.702Z,96733.00
2023-02-08T02:50:25.684Z,96731.00
2023-02-08T02:51:25.667Z,96731.00
2023-02-08T02:52:25.678Z,96729.00
2023-02-08T02:53:25.654Z,96725.00
2023-02-08T02:54:25.669Z,96727.00
2023-02-08T02:55:25.633Z,96729.00
2023-02-08T02:56:25.633Z,96727.00
2023-02-08T02:57:25.650Z,96729.00
2023-02-08T02:58:25.624Z,96731.00
2023-02-08T02:59:25.620Z,96729.00
2023-02-08T03:00:25.634Z,96733.00
2023-02-08T03:01:25.637Z,96731.00
2023-02-08T03:02:25.597Z,96733.00
2023-02-08T03:03:25.577Z,96733.00
2023-02-08T03:04:25.640Z,96733.00
2023-02-08T03:05:25.581Z,96733.00
2023-02-08T03:06:25.584Z,96733.00
2023-02-08T03:07:25.548Z,96733.00
2023-02-08T03:08:25.560Z,96733.00
2023-02-08T03:09:25.535Z,96733.00
2023-02-08T03:10:25.527Z,96733.00
2023-02-08T03:11:25.530Z,96731.00
2023-02-08T03:12:25.563Z,96731.00
2023-02-08T03:13:25.520Z,96729.00
2023-02-08T03:14:25.496Z,96731.00
2023-02-08T03:15:25.542Z,96729.00
2023-02-08T03:16:25.512Z,96731.00
2023-02-08T03:17:25.570Z,96727.00
2023-02-08T03:18:25.494Z,96729.00
2023-02-08T03:19:25.498Z,96727.00
2023-02-08T03:20:25.472Z,96729.00
2023-02-08T03:21:25.440Z,96729.00
2023-02-08T03:22:25.476Z,96731.00
2023-02-08T03:23:25.535Z,96733.00
2023-02-08T03:24:25.546Z,96733.00
2023-02-08T03:25:25.593Z,96733.00
2023-02-08T03:26:25.657Z,96735.00
2023-02-08T03:27:25.678Z,96737.00
2023-02-08T03:28:25.725Z,96737.00
2023-02-08T03:29:25.780Z,96735.00
2023-02-08T03:30:25.811Z,96739.00
2023-02-08T03:31:25.912Z,96741.00
2023-02-08T03:32:25.856Z,96739.00
2023-02-08T03:33:25.838Z,96739.00
2023-02-08T03:34:25.850Z,96739.00
2023-02-08T03:35:25.845Z,96739.00
2023-02-08T03:36:25.847Z,96741.00
2023-02-08T03:37:25.838Z,96741.00
2023-02-08T03:38:25.814Z,96741.00
2023-02-08T03:39:25.816Z,96741.00
2023-02-08T03:40:25.798Z,96742.00
2023-02-08T03:41:25.838Z,96742.00
2023-02-08T03:42:25.854Z,96744.00
2023-02-08T03:43:25.887Z,96742.00
2023-02-08T03:44:25.887Z,96744.00
2023-02-08T03:45:25.902Z,96744.00
2023-02-08T03:46:25.964Z,96742.00
2023-02-08T03:47:25.885Z,96746.00
2023-02-08T03:48:25.878Z,96744.00
2023-02-08T03:49:25.892Z,96744.00
2023-02-08T03:50:25.871Z,96742.00
2023-02-08T03:51:25.885Z,96742.00
2023-02-08T03:52:26.607Z,96741.00
2023-02-08T03:53:25.882Z,96742.00
2023-02-08T03:54:25.838Z,96741.00
2023-02-08T03:55:25.869Z,96742.00
2023-02-08T03:56:25.838Z,96742.00
2023-02-08T03:57:25.833Z,96742.00
2023-02-08T03:58:25.839Z,96741.00
2023-02-08T03:59:25.861Z,96742.00
2023-02-08T04:00:25.893Z,96741.00
2023-02-08T04:01:25.932Z,96742.00
2023-02-08T04:02:25.957Z,96744.00
2023-02-08T04:03:25.981Z,96746.00
2023-02-08T04:04:26.041Z,96746.00
2023-02-08T04:05:26.097Z,96746.00
2023-02-08T04:06:26.118Z,96744.00
2023-02-08T04:07:26.176Z,96744.00
2023-02-08T04:08:26.209Z,96742.00
2023-02-08T04:09:26.234Z,96741.00
2023-02-08T04:10:26.306Z,96744.00
2023-02-08T04:11:26.314Z,96741.00
2023-02-08T04:12:26.355Z,96741.00
2023-02-08T04:13:26.401Z,96741.00
2023-02-08T04:14:26.444Z,96742.00
2023-02-08T04:15:26.471Z,96741.00
2023-02-08T04:16:26.559Z,96742.00
2023-02-08T04:17:26.595Z,96744.00
2023-02-08T04:18:26.609Z,96744.00
2023-02-08T04:19:26.659Z,96744.00
2023-02-08T04:20:26.720Z,96742.00
2023-02-08T04:21:26.717Z,96746.00
2023-02-08T04:22:26.769Z,96744.00
2023-02-08T04:23:26.857Z,96742.00
2023-02-08T04:24:26.867Z,96744.00
2023-02-08T04:25:26.945Z,96742.00
2023-02-08T04:26:26.966Z,96741.00
2023-02-08T04:27:27.009Z,96741.00
2023-02-08T04:28:27.065Z,96739.00
2023-02-08T04:29:27.090Z,96739.00
2023-02-08T04:30:27.256Z,96737.00
2023-02-08T04:31:27.333Z,96739.00
2023-02-08T04:32:27.256Z,96737.00
2023-02-08T04:33:27.279Z,96735.00
2023-02-08T04:34:27.320Z,96739.00
2023-02-08T04:35:27.402Z,96737.00
2023-02-08T04:36:27.426Z,96739.00
2023-02-08T04:37:27.464Z,96741.00
2023-02-08T04:38:27.494Z,96741.00
2023-02-08T04:39:27.554Z,96739.00
2023-02-08T04:40:27.590Z,96739.00
2023-02-08T04:41:27.628Z,96737.00
2023-02-08T04:42:27.714Z,96739.00
2023-02-08T04:43:27.717Z,96741.00
2023-02-08T04:44:27.796Z,96739.00
2023-02-08T04:45:27.837Z,96741.00
2023-02-08T04:46:27.975Z,96739.00
2023-02-08T04:47:27.949Z,96735.00
2023-02-08T04:48:27.969Z,96735.00
2023-02-08T04:49:27.988Z,96733.00
2023-02-08T04:50:28.094Z,96735.00
2023-02-08T04:51:28.069Z,96733.00
2023-02-08T04:52:28.107Z,96733.00
2023-02-08T04:53:28.159Z,96735.00
2023-02-08T04:54:28.199Z,96733.00
2023-02-08T04:55:28.278Z,96735.00
2023-02-08T04:56:28.334Z,96733.00
2023-02-08T04:57:28.382Z,96735.00
2023-02-08T04:58:28.404Z,96731.00
2023-02-08T04:59:28.444Z,96731.00
2023-02-08T05:00:28.501Z,96729.00
2023-02-08T05:01:28.554Z,96729.00
2023-02-08T05:02:28.593Z,96727.00
2023-02-08T05:03:28.642Z,96729.00
2023-02-08T05:04:28.654Z,96727.00
2023-02-08T05:05:28.692Z,96723.00
2023-02-08T05:06:28.760Z,96723.00
2023-02-08T05:07:28.782Z,96719.00
2023-02-08T05:08:28.829Z,96719.00
2023-02-08T05:09:28.898Z,96721.00
2023-02-08T05:10:28.926Z,96719.00
2023-02-08T05:12:29.033Z,96721.00
2023-02-08T05:13:29.081Z,96723.00
2023-02-08T05:14:29.065Z,96725.00
2023-02-08T05:15:29.124Z,96725.00
2023-02-08T05:16:29.187Z,96725.00
2023-02-08T05:17:29.207Z,96725.00
2023-02-08T05:18:29.224Z,96727.00
2023-02-08T05:19:29.177Z,96727.00
2023-02-08T05:20:29.261Z,96725.00
2023-02-08T05:21:29.229Z,96727.00
2023-02-08T05:22:29.267Z,96723.00
2023-02-08T05:23:29.390Z,96721.00
2023-02-08T05:24:29.356Z,96721.00
2023-02-08T05:25:29.412Z,96721.00
2023-02-08T05:26:29.421Z,96719.00
2023-02-08T05:27:29.480Z,96717.00
2023-02-08T05:28:29.560Z,96719.00
2023-02-08T05:29:29.546Z,96715.00
2023-02-08T05:30:29.640Z,96719.00
2023-02-08T05:31:29.773Z,96713.00
2023-02-08T05:32:29.721Z,96713.00
2023-02-08T05:33:29.770Z,96713.00
2023-02-08T05:34:29.780Z,96713.00
2023-02-08T05:35:29.879Z,96713.00
2023-02-08T05:36:29.893Z,96711.00
2023-02-08T05:37:29.891Z,96713.00
2023-02-08T05:38:29.888Z,96713.00
2023-02-08T05:39:29.899Z,96713.00
2023-02-08T05:40:29.911Z,96711.00
2023-02-08T05:41:29.918Z,96703.00
2023-02-08T05:42:29.919Z,96703.00
2023-02-08T05:43:29.933Z,96701.00
2023-02-08T05:44:29.931Z,96703.00
2023-02-08T05:45:29.916Z,96703.00
2023-02-08T05:46:29.924Z,96701.00
2023-02-08T05:47:29.951Z,96701.00
2023-02-08T05:48:29.897Z,96703.00
2023-02-08T05:49:29.974Z,96701.00
2023-02-08T05:50:29.943Z,96697.00
2023-02-08T05:51:29.929Z,96697.00
2023-02-08T05:52:29.940Z,96699.00
2023-02-08T05:53:29.952Z,96699.00
2023-02-08T05:54:29.929Z,96701.00
2023-02-08T05:55:30.010Z,96701.00
2023-02-08T05:56:29.965Z,96703.00
2023-02-08T05:57:31.635Z,96701.00
2023-02-08T05:58:29.987Z,96711.00
2023-02-08T05:59:29.977Z,96703.00
2023-02-08T06:02:30.175Z,96703.00
2023-02-08T06:03:30.148Z,96713.00
2023-02-08T06:04:30.206Z,96713.00
2023-02-08T06:05:30.159Z,96717.00
2023-02-08T06:06:30.192Z,96719.00
2023-02-08T06:07:30.172Z,96721.00
2023-02-08T06:08:30.166Z,96721.00
2023-02-08T06:09:30.198Z,96723.00
2023-02-08T06:10:30.200Z,96721.00
2023-02-08T06:12:30.211Z,96725.00
2023-02-08T07:50:31.496Z,96737.00
2023-02-08T08:59:32.417Z,96686.00
2023-02-08T09:00:32.403Z,96686.00
2023-02-08T09:01:34.436Z,96686.00
2023-02-08T09:02:32.521Z,96688.00
2023-02-08T09:03:32.504Z,96686.00
2023-02-08T09:04:32.481Z,96686.00
2023-02-08T09:05:32.486Z,96684.00
2023-02-08T09:06:32.527Z,96682.00
2023-02-08T09:07:32.778Z,96682.00
2023-02-08T09:08:32.498Z,96684.00
2023-02-08T09:09:33.272Z,96682.00
2023-02-08T09:10:32.548Z,96680.00
2023-02-08T09:11:32.526Z,96678.00
2023-02-08T09:12:32.587Z,96676.00
2023-02-08T09:13:32.528Z,96672.00
2023-02-08T09:14:33.630Z,96674.00
2023-02-08T09:15:32.534Z,96674.00
2023-02-08T09:16:32.616Z,96668.00
2023-02-08T09:17:32.576Z,96670.00
2023-02-08T09:18:32.533Z,96668.00
2023-02-08T09:19:33.332Z,96664.00
2023-02-08T09:20:32.473Z,96666.00
2023-02-08T09:21:32.556Z,96664.00
2023-02-08T09:22:32.767Z,96664.00
2023-02-08T09:23:32.447Z,96666.00
2023-02-08T09:24:32.479Z,96664.00
2023-02-08T09:25:32.454Z,96664.00
2023-02-08T09:26:32.429Z,96666.00
2023-02-08T09:27:32.758Z,96664.00
2023-02-08T09:28:32.396Z,96662.00
2023-02-08T09:29:32.406Z,96660.00
2023-02-08T09:30:32.410Z,96662.00
2023-02-08T09:32:32.805Z,96662.00
2023-02-08T09:41:32.366Z,96641.00
2023-02-08T10:03:32.481Z,96644.00
2023-02-08T10:04:32.434Z,96644.00
2023-02-08T10:05:32.480Z,96639.00
2023-02-08T10:06:32.450Z,96639.00
2023-02-08T10:07:32.492Z,96635.00
2023-02-08T10:08:35.559Z,96633.00
2023-02-08T10:09:32.503Z,96633.00
2023-02-08T10:10:32.478Z,96633.00
2023-02-08T10:11:32.426Z,96631.00
2023-02-08T10:12:32.440Z,96631.00
2023-02-08T10:13:41.000Z,96631.00
2023-02-08T10:14:33.455Z,96629.00
2023-02-08T10:15:32.457Z,96629.00
2023-02-08T10:16:32.454Z,96629.00
2023-02-08T10:17:32.431Z,96623.00
2023-02-08T10:18:32.455Z,96627.00
2023-02-08T10:28:32.906Z,96619.00
2023-02-08T10:37:33.768Z,96611.00
2023-02-08T10:39:33.716Z,96609.00
2023-02-08T10:40:32.495Z,96605.00
2023-02-08T10:41:32.636Z,96603.00
2023-02-08T10:42:32.472Z,96597.00
2023-02-08T10:43:32.933Z,96597.00
2023-02-08T10:44:32.477Z,96595.00
2023-02-08T10:45:32.628Z,96595.00
2023-02-08T10:46:32.541Z,96592.00
2023-02-08T10:48:34.806Z,96586.00
2023-02-08T10:49:32.552Z,96586.00
2023-02-08T10:50:32.662Z,96582.00
2023-02-08T10:51:32.668Z,96580.00
2023-02-08T10:52:32.692Z,96576.00
2023-02-08T10:53:32.707Z,96578.00
2023-02-08T10:54:32.716Z,96580.00
2023-02-08T10:55:35.354Z,96578.00
2023-02-08T10:56:33.760Z,96576.00
2023-02-08T10:57:33.256Z,96574.00
2023-02-08T10:58:32.842Z,96574.00
2023-02-08T10:59:32.847Z,96574.00
2023-02-08T11:00:33.352Z,96572.00
2023-02-08T11:01:33.487Z,96570.00
2023-02-08T11:02:32.746Z,96572.00
2023-02-08T11:03:32.728Z,96570.00
2023-02-08T11:04:34.316Z,96564.00
2023-02-08T11:05:32.783Z,96564.00
2023-02-08T11:06:34.513Z,96560.00
2023-02-08T11:07:35.218Z,96556.00
2023-02-08T11:08:33.265Z,96553.00
2023-02-08T11:09:32.942Z,96555.00
2023-02-08T11:10:32.755Z,96555.00
2023-02-08T11:11:35.070Z,96555.00
2023-02-08T11:12:33.255Z,96555.00
2023-02-08T11:13:34.724Z,96547.00
2023-02-08T11:14:45.644Z,96547.00
2023-02-08T11:15:34.409Z,96545.00
2023-02-08T11:16:32.909Z,96545.00
2023-02-08T11:17:32.607Z,96543.00
2023-02-08T11:18:32.756Z,96539.00
2023-02-08T11:19:35.405Z,96533.00
2023-02-08T11:20:33.261Z,96531.00
2023-02-08T11:21:32.758Z,96527.00
2023-02-08T11:22:33.290Z,96525.00
2023-02-08T11:23:32.596Z,96521.00
2023-02-08T11:24:34.267Z,96513.00
2023-02-08T11:25:33.883Z,96513.00
2023-02-08T11:26:33.287Z,96508.00
2023-02-08T11:27:32.707Z,96508.00
2023-02-08T11:28:34.525Z,96506.00
2023-02-08T11:29:32.588Z,96506.00
2023-02-08T11:30:32.547Z,96502.00
2023-02-08T11:31:32.770Z,96504.00
2023-02-08T11:32:32.645Z,96502.00
2023-02-08T11:33:33.277Z,96504.00
2023-02-08T11:34:32.590Z,96506.00
2023-02-08T11:35:32.490Z,96509.00
2023-02-08T11:36:32.875Z,96506.00
2023-02-08T11:37:32.524Z,96506.00
2023-02-08T11:38:32.483Z,96506.00
2023-02-08T11:39:36.078Z,96506.00
2023-02-08T11:40:32.609Z,96502.00
2023-02-08T11:42:32.526Z,96498.00
2023-02-08T11:43:32.633Z,96498.00
2023-02-08T11:44:32.521Z,96498.00
2023-02-08T11:46:34.074Z,96492.00
2023-02-08T12:08:32.571Z,96455.00
2023-02-08T12:10:32.877Z,96439.00
2023-02-08T12:11:32.406Z,96439.00
2023-02-08T12:12:33.402Z,96435.00
2023-02-08T12:13:32.487Z,96433.00
2023-02-08T12:14:32.616Z,96433.00
2023-02-08T12:15:32.890Z,96435.00
2023-02-08T12:16:32.797Z,96435.00
2023-02-08T12:17:32.678Z,96433.00
2023-02-08T12:18:32.764Z,96433.00
2023-02-08T12:19:32.762Z,96431.00
2023-02-08T12:20:32.808Z,96425.00
2023-02-08T12:21:32.835Z,96419.00
2023-02-08T12:22:32.891Z,96415.00
2023-02-08T12:23:32.959Z,96411.00
2023-02-08T12:24:32.996Z,96409.00
2023-02-08T12:25:33.022Z,96409.00
2023-02-08T12:26:33.093Z,96411.00
2023-02-08T12:27:33.129Z,96411.00
2023-02-08T12:28:33.211Z,96413.00
2023-02-08T12:29:46.637Z,96415.00
2023-02-08T12:30:34.417Z,96409.00
2023-02-08T12:31:33.263Z,96413.00
2023-02-08T12:32:33.223Z,96411.00
2023-02-08T12:33:33.236Z,96405.00
2023-02-08T12:34:33.213Z,96409.00
2023-02-08T12:35:41.667Z,96405.00
2023-02-08T12:36:34.265Z,96403.00
2023-02-08T12:37:33.344Z,96400.00
2023-02-08T12:38:33.166Z,96398.00
2023-02-08T12:39:33.144Z,96396.00
2023-02-08T12:40:33.159Z,96400.00
2023-02-08T12:41:33.205Z,96394.00
2023-02-08T12:42:33.121Z,96396.00
2023-02-08T12:43:33.146Z,96392.00
2023-02-08T12:44:33.139Z,96390.00
2023-02-08T12:45:33.196Z,96386.00
2023-02-08T12:46:33.326Z,96382.00
2023-02-08T12:47:33.264Z,96380.00
2023-02-08T12:48:33.309Z,96376.00
2023-02-08T12:49:33.369Z,96370.00
2023-02-08T12:50:33.379Z,96372.00
2023-02-08T12:51:33.428Z,96370.00
2023-02-08T12:52:33.457Z,96370.00
2023-02-08T12:53:33.470Z,96372.00
2023-02-08T12:54:33.499Z,96376.00
2023-02-08T12:55:33.556Z,96372.00
2023-02-08T12:56:33.547Z,96370.00
2023-02-08T12:57:33.568Z,96370.00
2023-02-08T12:58:33.524Z,96368.00
2023-02-08T12:59:33.593Z,96366.00
2023-02-08T13:00:33.590Z,96364.00
2023-02-08T13:01:33.600Z,96361.00
2023-02-08T13:02:33.674Z,96361.00
2023-02-08T13:03:33.572Z,96359.00
2023-02-08T13:04:33.561Z,96357.00
2023-02-08T13:05:33.589Z,96355.00
2023-02-08T13:06:33.593Z,96345.00
2023-02-08T13:07:33.619Z,96347.00
2023-02-08T13:08:33.649Z,96345.00
2023-02-08T13:09:35.566Z,96345.00
2023-02-08T13:10:33.620Z,96343.00
2023-02-08T13:11:33.614Z,96341.00
2023-02-08T13:12:33.631Z,96339.00
2023-02-08T13:13:33.647Z,96341.00
2023-02-08T13:14:33.683Z,96337.00
2023-02-08T13:15:33.716Z,96327.00
2023-02-08T13:16:33.721Z,96325.00
2023-02-08T13:17:33.798Z,96327.00
2023-02-08T13:18:33.812Z,96327.00
2023-02-08T13:19:33.870Z,96325.00
2023-02-08T13:20:33.935Z,96321.00
2023-02-08T13:21:33.973Z,96321.00
2023-02-08T13:22:33.970Z,96319.00
2023-02-08T13:23:38.484Z,96323.00
2023-02-08T13:24:35.025Z,96321.00
2023-02-08T13:25:33.995Z,96319.00
2023-02-08T13:26:33.998Z,96317.00
2023-02-08T13:27:33.998Z,96312.00
2023-02-08T13:28:33.999Z,96315.00
2023-02-08T13:29:34.036Z,96309.00
2023-02-08T13:30:34.040Z,96312.00
2023-02-08T13:31:34.068Z,96312.00
2023-02-08T13:32:33.976Z,96314.00
2023-02-08T13:33:33.945Z,96317.00
2023-02-08T13:34:33.918Z,96314.00
2023-02-08T13:35:33.928Z,96314.00
2023-02-08T13:36:34.023Z,96312.00
2023-02-08T13:37:33.938Z,96307.00
2023-02-08T13:38:33.917Z,96307.00
2023-02-08T13:39:33.960Z,96307.00
2023-02-08T13:40:34.074Z,96309.00
2023-02-08T13:41:34.049Z,96309.00
2023-02-08T13:42:34.129Z,96306.00
2023-02-08T13:43:36.468Z,96306.00
2023-02-08T13:44:34.178Z,96307.00
2023-02-08T13:45:34.249Z,96306.00
2023-02-08T13:48:34.124Z,96304.00
2023-02-08T13:51:34.155Z,96294.00
2023-02-08T13:52:46.398Z,96292.00
2023-02-08T13:53:35.136Z,96296.00
2023-02-08T13:54:34.095Z,96294.00
2023-02-08T13:55:34.072Z,96296.00
2023-02-08T13:56:34.073Z,96298.00
2023-02-08T13:57:34.082Z,96298.00
2023-02-08T13:58:34.050Z,96300.00
2023-02-08T13:59:34.170Z,96298.00
2023-02-08T14:00:34.063Z,96298.00
2023-02-08T14:01:34.391Z,96302.00
2023-02-08T14:02:35.734Z,96298.00
2023-02-08T14:03:34.689Z,96298.00
2023-02-08T14:04:35.412Z,96298.00
2023-02-08T14:05:35.013Z,96298.00
2023-02-08T14:06:35.733Z,96298.00
2023-02-08T14:07:34.251Z,96304.00
2023-02-08T14:08:34.423Z,96300.00
2023-02-08T14:09:34.516Z,96298.00
2023-02-08T14:10:34.836Z,96298.00
2023-02-08T14:11:34.846Z,96296.00
2023-02-08T14:12:34.814Z,96290.00
2023-02-08T14:13:34.593Z,96288.00
2023-02-08T14:14:34.968Z,96286.00
2023-02-08T14:15:34.684Z,96288.00
2023-02-08T14:16:34.776Z,96288.00
2023-02-08T14:17:34.834Z,96288.00
2023-02-08T14:18:34.870Z,96288.00
2023-02-08T14:19:34.902Z,96288.00
2023-02-08T14:20:35.001Z,96286.00
2023-02-08T14:21:35.403Z,96282.00
2023-02-08T14:22:35.101Z,96280.00
2023-02-08T14:23:35.190Z,96282.00
2023-02-08T14:24:35.325Z,96282.00
2023-02-08T14:25:35.300Z,96282.00
2023-02-08T14:26:35.494Z,96280.00
2023-02-08T14:27:35.424Z,96282.00
2023-02-08T14:28:35.494Z,96282.00
2023-02-08T14:29:35.561Z,96278.00
2023-02-08T14:30:35.619Z,96284.00
2023-02-08T14:31:35.715Z,96284.00
2023-02-08T14:32:35.682Z,96280.00
2023-02-08T14:33:35.726Z,96286.00
2023-02-08T14:34:35.795Z,96282.00
2023-02-08T14:35:35.809Z,96282.00
2023-02-08T14:36:35.858Z,96282.00
2023-02-08T14:37:35.878Z,96278.00
2023-02-08T14:38:35.892Z,96280.00
2023-02-08T14:39:35.936Z,96274.00
2023-02-08T14:40:36.063Z,96278.00
2023-02-08T14:41:36.050Z,96280.00
2023-02-08T14:42:36.071Z,96278.00
2023-02-08T14:43:36.063Z,96282.00
2023-02-08T14:44:36.117Z,96284.00
2023-02-08T14:45:36.140Z,96276.00
2023-02-08T14:46:36.209Z,96282.00
2023-02-08T14:47:36.198Z,96278.00
2023-02-08T14:48:36.257Z,96278.00
2023-02-08T14:49:36.317Z,96276.00
2023-02-08T14:50:36.315Z,96274.00
2023-02-08T14:51:36.379Z,96270.00
2023-02-08T14:52:36.407Z,96268.00
2023-02-08T14:53:36.452Z,96267.00
2023-02-08T14:54:36.481Z,96272.00
2023-02-08T14:55:36.485Z,96272.00
2023-02-08T14:56:36.573Z,96268.00
2023-02-08T14:57:36.599Z,96270.00
2023-02-08T14:58:36.649Z,96272.00
2023-02-08T14:59:36.668Z,96274.00
2023-02-08T15:00:36.734Z,96274.00
2023-02-08T15:01:36.763Z,96267.00
2023-02-08T15:02:36.809Z,96267.00
2023-02-08T15:03:36.817Z,96268.00
2023-02-08T15:04:36.773Z,96270.00
2023-02-08T15:05:36.806Z,96268.00
2023-02-08T15:06:36.771Z,96272.00
2023-02-08T15:07:36.768Z,96268.00
2023-02-08T15:08:36.782Z,96270.00
2023-02-08T15:09:36.796Z,96268.00
2023-02-08T15:10:36.822Z,96268.00
2023-02-08T15:11:36.829Z,96268.00
2023-02-08T15:12:36.836Z,96268.00
2023-02-08T15:13:36.886Z,96274.00
2023-02-08T15:14:36.924Z,96272.00
2023-02-08T15:15:36.976Z,96270.00
2023-02-08T15:16:37.053Z,96270.00
2023-02-08T15:17:37.124Z,96272.00
2023-02-08T15:18:37.130Z,96270.00
2023-02-08T15:19:37.129Z,96272.00
2023-02-08T15:20:37.248Z,96278.00
2023-02-08T15:21:37.242Z,96280.00
2023-02-08T15:22:37.230Z,96280.00
2023-02-08T15:23:37.298Z,96280.00
2023-02-08T15:24:37.283Z,96284.00
2023-02-08T15:25:37.303Z,96286.00
2023-02-08T15:26:37.342Z,96288.00
2023-02-08T15:27:37.340Z,96288.00
2023-02-08T15:28:37.346Z,96288.00
2023-02-08T15:29:44.487Z,96292.00
2023-02-08T15:30:38.441Z,96296.00
2023-02-08T15:31:37.385Z,96300.00
2023-02-08T15:32:37.319Z,96302.00
2023-02-08T15:33:37.345Z,96298.00
2023-02-08T15:34:37.310Z,96304.00
2023-02-08T15:35:37.355Z,96302.00
2023-02-08T15:36:37.303Z,96304.00
2023-02-08T15:37:37.329Z,96309.00
2023-02-08T15:38:37.318Z,96304.00
2023-02-08T15:39:37.324Z,96302.00
2023-02-08T15:40:37.329Z,96300.00
2023-02-08T15:47:37.401Z,96307.00
2023-02-08T15:48:37.438Z,96309.00
2023-02-08T15:49:37.434Z,96306.00
2023-02-08T15:50:37.419Z,96306.00
2023-02-08T15:51:37.456Z,96306.00
2023-02-08T15:52:37.439Z,96309.00
2023-02-08T15:53:37.453Z,96307.00
2023-02-08T15:54:37.477Z,96312.00
2023-02-08T15:55:37.492Z,96306.00
2023-02-08T15:56:40.782Z,96304.00
2023-02-08T15:57:37.454Z,96306.00
2023-02-08T15:58:37.467Z,96306.00
2023-02-08T15:59:37.484Z,96307.00
2023-02-08T16:00:37.456Z,96312.00
2023-02-08T16:01:37.480Z,96312.00
2023-02-08T16:02:37.428Z,96312.00
2023-02-08T16:03:38.503Z,96309.00
2023-02-08T16:04:37.442Z,96312.00
2023-02-08T16:05:37.426Z,96309.00
2023-02-08T16:06:37.454Z,96312.00
2023-02-08T16:07:37.434Z,96312.00
2023-02-08T16:08:37.414Z,96312.00
2023-02-08T16:09:37.425Z,96312.00
2023-02-08T16:10:37.407Z,96309.00
2023-02-08T16:11:37.396Z,96309.00
2023-02-08T16:12:37.391Z,96312.00
2023-02-08T16:13:37.387Z,96309.00
2023-02-08T16:14:51.617Z,96314.00
2023-02-08T16:15:38.402Z,96314.00
2023-02-08T16:16:37.383Z,96315.00
2023-02-08T16:17:37.379Z,96319.00
2023-02-08T16:18:37.375Z,96321.00
2023-02-08T16:19:37.354Z,96323.00
2023-02-08T16:20:37.370Z,96317.00
2023-02-08T16:21:37.355Z,96314.00
2023-02-08T16:22:37.359Z,96319.00
2023-02-08T16:23:37.404Z,96321.00
2023-02-08T16:24:37.496Z,96319.00
2023-02-08T16:25:37.548Z,96321.00
2023-02-08T16:26:37.642Z,96319.00
2023-02-08T16:27:37.679Z,96317.00
2023-02-08T16:28:37.802Z,96321.00
2023-02-08T16:29:37.781Z,96323.00
2023-02-08T16:30:37.945Z,96325.00
2023-02-08T16:31:38.698Z,96321.00
2023-02-08T16:32:37.869Z,96321.00
2023-02-08T16:33:37.888Z,96321.00
2023-02-08T16:34:37.896Z,96317.00
2023-02-08T16:35:37.926Z,96315.00
2023-02-08T16:36:37.989Z,96317.00
2023-02-08T16:37:37.989Z,96319.00
2023-02-08T16:38:37.983Z,96323.00
2023-02-08T16:39:38.028Z,96321.00
2023-02-08T16:40:38.065Z,96325.00
2023-02-08T16:41:38.116Z,96325.00
2023-02-08T16:42:38.121Z,96329.00
2023-02-08T16:43:38.145Z,96331.00
2023-02-08T16:44:38.176Z,96333.00
2023-02-08T16:45:38.167Z,96335.00
2023-02-08T16:46:38.248Z,96337.00
2023-02-08T16:47:38.257Z,96333.00
2023-02-08T16:48:38.258Z,96335.00
2023-02-08T16:49:38.318Z,96341.00
2023-02-08T16:50:38.303Z,96341.00
2023-02-08T16:51:38.396Z,96343.00
2023-02-08T16:52:38.399Z,96343.00
2023-02-08T16:53:42.343Z,96341.00
2023-02-08T16:54:38.441Z,96341.00
2023-02-08T16:55:38.381Z,96341.00
2023-02-08T16:56:38.425Z,96345.00
2023-02-08T16:57:38.405Z,96345.00
2023-02-08T16:58:38.380Z,96341.00
2023-02-08T16:59:38.415Z,96343.00
2023-02-08T17:00:38.351Z,96345.00
2023-02-08T17:01:38.486Z,96347.00
2023-02-08T17:42:38.075Z,96390.00
2023-02-08T17:43:38.058Z,96390.00
2023-02-08T17:44:38.044Z,96392.00
2023-02-08T17:45:38.054Z,96392.00
2023-02-08T17:46:38.122Z,96392.00
2023-02-08T17:47:38.009Z,96392.00
2023-02-08T17:48:38.018Z,96394.00
2023-02-08T17:49:38.034Z,96394.00
2023-02-08T17:50:38.003Z,96388.00
2023-02-08T17:51:38.018Z,96392.00
2023-02-08T17:52:38.024Z,96392.00
2023-02-08T17:54:37.989Z,96392.00
2023-02-08T17:55:37.949Z,96394.00
2023-02-08T17:56:37.962Z,96394.00
2023-02-08T17:57:37.982Z,96394.00
2023-02-08T17:58:37.974Z,96394.00
2023-02-08T17:59:37.944Z,96396.00
2023-02-08T18:00:37.958Z,96398.00
2023-02-08T18:01:38.056Z,96394.00
2023-02-08T18:02:38.078Z,96396.00
2023-02-08T18:03:38.086Z,96398.00
2023-02-08T18:04:38.149Z,96400.00
2023-02-08T18:05:38.166Z,96401.00
2023-02-08T18:06:38.237Z,96405.00
2023-02-08T18:07:38.241Z,96403.00
2023-02-08T18:08:38.267Z,96403.00
2023-02-08T18:09:38.318Z,96403.00
2023-02-08T18:10:38.355Z,96401.00
2023-02-08T18:11:38.396Z,96403.00
2023-02-08T18:12:38.425Z,96403.00
2023-02-08T18:13:38.433Z,96407.00
2023-02-08T18:14:38.442Z,96403.00
2023-02-08T18:15:38.405Z,96401.00
2023-02-08T18:16:38.488Z,96401.00
2023-02-08T18:17:38.460Z,96401.00
2023-02-08T18:18:38.503Z,96401.00
2023-02-08T18:19:38.538Z,96401.00
2023-02-08T18:20:38.581Z,96403.00
2023-02-08T18:21:38.616Z,96405.00
2023-02-08T18:22:38.658Z,96403.00
2023-02-08T18:23:38.664Z,96405.00
2023-02-08T18:24:38.746Z,96403.00
2023-02-08T18:25:38.760Z,96403.00
2023-02-08T18:26:38.825Z,96403.00
2023-02-08T18:27:38.878Z,96401.00
2023-02-08T18:28:38.896Z,96405.00
2023-02-08T18:29:38.950Z,96403.00
2023-02-08T18:30:38.986Z,96405.00
2023-02-08T18:31:39.200Z,96407.00
2023-02-08T18:32:39.037Z,96403.00
2023-02-08T18:34:39.191Z,96407.00
2023-02-08T18:35:39.199Z,96409.00
2023-02-08T18:36:39.244Z,96407.00
2023-02-08T18:37:39.271Z,96407.00
2023-02-08T18:38:39.308Z,96407.00
2023-02-08T18:39:39.378Z,96407.00
2023-02-08T18:40:39.388Z,96407.00
2023-02-08T18:41:39.457Z,96407.00
2023-02-08T18:42:39.478Z,96405.00
2023-02-08T18:43:39.532Z,96409.00
2023-02-08T18:44:39.560Z,96413.00
2023-02-08T18:45:39.530Z,96417.00
2023-02-08T18:46:39.589Z,96417.00
2023-02-08T18:47:39.695Z,96421.00
2023-02-08T18:48:39.543Z,96423.00
2023-02-08T18:49:39.551Z,96425.00
2023-02-08T18:50:39.567Z,96423.00
2023-02-08T18:51:39.618Z,96421.00
2023-02-08T18:52:39.664Z,96423.00
2023-02-08T18:53:39.660Z,96421.00
2023-02-08T18:54:39.794Z,96425.00
2023-02-08T18:55:39.740Z,96425.00
2023-02-08T18:56:39.811Z,96429.00
2023-02-08T18:57:39.887Z,96427.00
2023-02-08T18:58:39.921Z,96427.00
2023-02-08T18:59:39.986Z,96425.00
2023-02-08T19:00:41.342Z,96429.00
2023-02-08T19:01:40.207Z,96429.00
2023-02-08T19:02:40.155Z,96427.00
2023-02-08T19:03:40.139Z,96427.00
2023-02-08T19:04:40.157Z,96431.00